Time;durP1;ratioP1;P1;durP2;ratioP2;P2;SDS_P1;SDS_P2;PMS_P1;PMS_P2;Temp;Humidity;BMP_temperature;BMP_pressure;BME280_temperature;BME280_humidity;BME280_pressure;Samples;Min_cycle;Max_cycle;Signal;HPM_P1;HPM_P2
2022/07/02 00:00:38;;;;;;;7.10;4.60;;;;;;;9.45;100.00;96796.34;2040603;29;20048;-61
2022/07/02 00:01:39;;;;;;;8.85;4.47;;;;;;;9.38;100.00;96794.81;2033193;29;20136;-61
2022/07/02 00:02:41;;;;;;;7.57;4.40;;;;;;;9.42;100.00;96797.28;2040674;29;20051;-61
2022/07/02 00:03:43;;;;;;;8.60;4.57;;;;;;;9.44;100.00;96802.44;2048382;28;20051;-61
2022/07/02 00:04:47;;;;;;;7.68;4.60;;;;;;;9.41;100.00;96800.78;2048413;29;20043;-61
2022/07/02 00:05:56;;;;;;;9.43;4.97;;;;;;;9.53;100.00;96802.16;2049172;28;20410;-59
2022/07/02 00:06:57;;;;;;;7.18;4.85;;;;;;;9.53;100.00;96798.72;2048638;29;20058;-60
2022/07/02 00:07:58;;;;;;;9.38;5.10;;;;;;;9.50;100.00;96800.50;2048623;29;20051;-62
2022/07/02 00:09:00;;;;;;;9.25;6.82;;;;;;;9.40;100.00;96799.06;2048498;29;20051;-61
2022/07/02 00:10:02;;;;;;;8.70;5.90;;;;;;;9.38;100.00;96803.47;2040327;29;20055;-60
2022/07/02 00:11:03;;;;;;;10.50;5.43;;;;;;;9.36;100.00;96801.81;2048818;28;20043;-61
2022/07/02 00:12:05;;;;;;;6.90;4.53;;;;;;;9.23;100.00;96804.75;2048877;29;20051;-61
2022/07/02 00:13:06;;;;;;;9.60;5.50;;;;;;;9.27;100.00;96801.19;2033396;29;20430;-61
2022/07/02 00:14:08;;;;;;;7.80;6.18;;;;;;;9.29;100.00;96801.13;2040562;28;20525;-60
2022/07/02 00:15:10;;;;;;;8.80;5.60;;;;;;;9.31;100.00;96799.34;2056354;28;20572;-61
2022/07/02 00:16:11;;;;;;;9.57;5.18;;;;;;;9.34;100.00;96799.25;2040607;29;20359;-60
2022/07/02 00:17:12;;;;;;;12.02;6.55;;;;;;;9.33;100.00;96796.69;2033648;29;20051;-61
2022/07/02 00:18:14;;;;;;;8.40;6.15;;;;;;;9.35;100.00;96802.69;2033404;29;20088;-60
2022/07/02 00:19:15;;;;;;;9.40;6.20;;;;;;;9.33;100.00;96800.16;2040977;29;20051;-61
2022/07/02 00:20:16;;;;;;;12.05;5.93;;;;;;;9.27;100.00;96803.78;2040929;29;20461;-61
2022/07/02 00:21:18;;;;;;;10.02;6.55;;;;;;;9.26;100.00;96803.81;2033004;29;20056;-61
2022/07/02 00:22:19;;;;;;;8.82;5.93;;;;;;;9.17;100.00;96797.16;2033131;29;20056;-60
2022/07/02 00:23:21;;;;;;;8.50;5.68;;;;;;;9.21;100.00;96801.34;2048788;28;20050;-60
2022/07/02 00:24:22;;;;;;;9.30;6.20;;;;;;;9.22;100.00;96799.59;2058320;28;20061;-60
2022/07/02 00:25:23;;;;;;;10.50;6.13;;;;;;;9.17;100.00;96793.75;2041898;29;20050;-61
2022/07/02 00:26:29;;;;;;;10.10;6.65;;;;;;;9.23;100.00;96801.31;2034576;29;20055;-61
2022/07/02 00:27:31;;;;;;;10.13;6.22;;;;;;;9.21;100.00;96809.13;2050004;29;20401;-62
2022/07/02 00:28:34;;;;;;;11.45;6.38;;;;;;;9.21;100.00;96803.94;2034389;29;20063;-61
2022/07/02 00:29:43;;;;;;;10.23;6.57;;;;;;;9.18;100.00;96801.44;2042191;28;20039;-61
2022/07/02 00:30:46;;;;;;;13.18;7.10;;;;;;;9.10;100.00;96803.41;2058189;28;20047;-61
2022/07/02 00:31:47;;;;;;;11.00;5.95;;;;;;;9.12;100.00;96803.38;2050282;29;20058;-59
2022/07/02 00:32:48;;;;;;;9.48;6.72;;;;;;;9.12;100.00;96808.56;2034913;29;20055;-61
2022/07/02 00:33:50;;;;;;;8.82;5.30;;;;;;;8.99;100.00;96813.22;2026467;29;20063;-61
2022/07/02 00:34:51;;;;;;;8.77;5.50;;;;;;;9.08;100.00;96797.41;2036109;28;20044;-61
2022/07/02 00:35:52;;;;;;;9.18;5.82;;;;;;;9.07;100.00;96802.66;2050008;29;20042;-61
2022/07/02 00:36:55;;;;;;;10.32;6.65;;;;;;;9.16;100.00;96805.81;2042109;29;20055;-61
2022/07/02 00:37:56;;;;;;;9.32;6.63;;;;;;;9.10;100.00;96797.38;2049892;28;20055;-60
2022/07/02 00:38:58;;;;;;;11.10;7.32;;;;;;;9.07;100.00;96800.06;2049472;29;20063;-60
2022/07/02 00:39:59;;;;;;;9.25;7.22;;;;;;;9.12;100.00;96795.59;2035293;29;20055;-61
2022/07/02 00:41:02;;;;;;;8.65;6.68;;;;;;;9.13;100.00;96794.69;2042725;29;20421;-60
2022/07/02 00:42:04;;;;;;;8.50;6.90;;;;;;;9.17;100.00;96797.16;2042181;29;20078;-60
2022/07/02 00:43:05;;;;;;;11.18;7.97;;;;;;;9.17;100.00;96794.56;2034841;29;20052;-61
2022/07/02 00:44:06;;;;;;;9.55;7.35;;;;;;;9.11;100.00;96784.38;2041619;29;20055;-61
2022/07/02 00:45:08;;;;;;;9.20;6.53;;;;;;;9.10;100.00;96792.22;2049662;29;20059;-60
2022/07/02 00:46:09;;;;;;;10.13;7.28;;;;;;;9.05;100.00;96788.00;2049478;28;20414;-59
2022/07/02 00:47:10;;;;;;;9.80;7.53;;;;;;;9.11;100.00;96792.13;2042321;29;20055;-60
2022/07/02 00:48:13;;;;;;;14.27;9.10;;;;;;;9.12;100.00;96785.25;2042293;29;20433;-59
2022/07/02 00:49:15;;;;;;;10.90;7.00;;;;;;;8.99;100.00;96790.75;2034813;29;20052;-60
2022/07/02 00:50:16;;;;;;;8.68;6.43;;;;;;;8.92;100.00;96790.97;2034373;29;20048;-61
2022/07/02 00:51:18;;;;;;;14.15;8.18;;;;;;;9.00;100.00;96784.69;2034105;29;20434;-60
2022/07/02 00:52:19;;;;;;;12.45;8.63;;;;;;;9.07;100.00;96782.78;2034070;29;20056;-59
2022/07/02 00:53:20;;;;;;;11.57;8.70;;;;;;;9.08;100.00;96787.06;2049898;29;20047;-62
2022/07/02 00:54:21;;;;;;;9.85;7.07;;;;;;;9.00;100.00;96786.41;2042420;29;20048;-61
2022/07/02 00:55:22;;;;;;;12.90;8.85;;;;;;;9.07;100.00;96794.88;2034653;29;20557;-60
2022/07/02 00:56:25;;;;;;;13.18;10.45;;;;;;;9.18;100.00;96785.06;2042027;29;20421;-61
2022/07/02 00:57:26;;;;;;;17.65;10.20;;;;;;;9.17;100.00;96780.78;2049872;28;20047;-61
2022/07/02 00:58:29;;;;;;;17.30;11.85;;;;;;;9.17;100.00;96786.81;2057133;28;20046;-61
2022/07/02 00:59:30;;;;;;;14.60;9.45;;;;;;;9.02;100.00;96787.25;2049841;29;20105;-61
2022/07/02 01:00:31;;;;;;;14.68;10.50;;;;;;;9.08;100.00;96789.66;2049658;29;20047;-61
2022/07/02 01:01:32;;;;;;;16.40;11.68;;;;;;;9.17;100.00;96802.34;2041564;29;20047;-60
2022/07/02 01:02:35;;;;;;;19.20;12.68;;;;;;;9.18;100.00;96793.66;2041482;29;20051;-60
2022/07/02 01:03:37;;;;;;;15.45;11.30;;;;;;;9.16;100.00;96786.84;2042290;29;20095;-60
2022/07/02 01:04:39;;;;;;;19.38;12.23;;;;;;;9.16;100.00;96787.69;2041543;29;20043;-60
2022/07/02 01:05:40;;;;;;;20.30;13.23;;;;;;;9.09;100.00;96788.78;2034788;29;20048;-61
2022/07/02 01:06:42;;;;;;;26.45;15.43;;;;;;;9.09;100.00;96787.91;2050499;29;20051;-61
2022/07/02 01:07:46;;;;;;;21.17;14.18;;;;;;;9.07;100.00;96787.97;2042308;29;20047;-61
2022/07/02 01:11:20;;;;;;;18.80;12.20;;;;;;;8.93;100.00;96793.53;2045653;29;20047;-59
2022/07/02 01:12:23;;;;;;;21.38;14.32;;;;;;;8.94;100.00;96795.22;2043448;29;20544;-60
2022/07/02 01:13:24;;;;;;;18.17;12.43;;;;;;;8.96;100.00;96784.81;2041869;29;20512;-61
2022/07/02 01:14:26;;;;;;;20.17;14.40;;;;;;;8.98;100.00;96789.06;2034478;29;20048;-61
2022/07/02 01:15:27;;;;;;;23.30;14.50;;;;;;;9.02;100.00;96790.66;2049512;29;20057;-61
2022/07/02 01:16:28;;;;;;;27.95;17.92;;;;;;;9.05;100.00;96790.56;2042409;29;20521;-61
2022/07/02 01:17:30;;;;;;;20.48;14.02;;;;;;;8.97;100.00;96779.59;2041602;29;20043;-60
2022/07/02 01:18:31;;;;;;;27.95;17.17;;;;;;;9.04;100.00;96791.47;2042138;29;20059;-60
2022/07/02 01:19:33;;;;;;;29.30;17.40;;;;;;;9.03;100.00;96783.75;2049861;29;20063;-60
2022/07/02 01:20:34;;;;;;;27.48;17.23;;;;;;;9.03;100.00;96783.75;2034052;29;20066;-60
2022/07/02 01:21:37;;;;;;;24.30;16.23;;;;;;;8.99;100.00;96787.31;2042007;29;20047;-60
2022/07/02 01:22:38;;;;;;;28.67;18.02;;;;;;;8.98;100.00;96781.31;2041462;29;20529;-61
2022/07/02 01:23:39;;;;;;;33.38;19.17;;;;;;;8.98;100.00;96780.44;2041660;29;20039;-62
2022/07/02 01:24:41;;;;;;;42.65;21.50;;;;;;;8.99;100.00;96779.56;2042243;29;20469;-61
2022/07/02 01:25:50;;;;;;;36.65;21.48;;;;;;;8.98;100.00;96778.72;2042005;29;20058;-61
2022/07/02 01:26:52;;;;;;;35.00;20.65;;;;;;;8.98;100.00;96781.31;2042237;29;20050;-61
2022/07/02 01:27:53;;;;;;;48.15;23.85;;;;;;;9.04;100.00;96775.94;2042448;28;20036;-60
2022/07/02 01:28:54;;;;;;;43.10;22.92;;;;;;;9.05;100.00;96776.78;2035395;29;20170;-61
2022/07/02 01:29:56;;;;;;;42.45;23.42;;;;;;;9.07;100.00;96774.16;2026557;29;20428;-61
2022/07/02 01:30:57;;;;;;;42.75;22.63;;;;;;;9.05;100.00;96775.03;2041786;29;20470;-61
2022/07/02 01:31:58;;;;;;;46.03;22.70;;;;;;;9.01;100.00;96781.22;2026234;29;20052;-60
2022/07/02 01:32:59;;;;;;;53.33;25.20;;;;;;;9.05;100.00;96780.22;2026140;29;20060;-60
2022/07/02 01:34:01;;;;;;;67.20;27.02;;;;;;;9.12;100.00;96782.66;2034011;29;20055;-61
2022/07/02 01:35:05;;;;;;;132.95;35.63;;;;;;;9.18;100.00;96782.47;2033535;29;20040;-61
2022/07/02 01:36:06;;;;;;;99.88;31.55;;;;;;;9.23;100.00;96778.00;2033536;29;20530;-60
2022/07/02 01:37:09;;;;;;;107.38;33.50;;;;;;;9.23;100.00;96775.41;2026924;29;20076;-61
2022/07/02 01:38:10;;;;;;;75.43;29.48;;;;;;;9.22;100.00;96778.88;2049501;29;20055;-60
2022/07/02 01:39:11;;;;;;;54.13;26.38;;;;;;;9.28;100.00;96782.16;2041941;29;20052;-61
2022/07/02 01:40:13;;;;;;;192.00;42.05;;;;;;;9.23;100.00;96778.00;2034128;29;20051;-61
2022/07/02 01:42:36;;;;;;;209.70;41.47;;;;;;;9.20;100.00;96765.97;2039045;29;20048;-60
2022/07/02 01:43:37;;;;;;;184.40;41.03;;;;;;;9.21;100.00;96764.22;2037248;29;20052;-61
2022/07/02 01:44:39;;;;;;;178.65;40.55;;;;;;;9.21;100.00;96772.00;2050106;29;20050;-62
2022/07/02 01:45:40;;;;;;;104.47;31.73;;;;;;;9.23;100.00;96770.22;2049904;29;20046;-60
2022/07/02 01:46:43;;;;;;;286.42;47.72;;;;;;;9.19;100.00;96769.44;2049363;29;20043;-61
2022/07/02 01:47:45;;;;;;;111.63;30.73;;;;;;;9.19;100.00;96772.03;2049517;29;20051;-62
2022/07/02 01:48:46;;;;;;;434.90;56.72;;;;;;;9.13;100.00;96768.78;2033459;29;20553;-60
2022/07/02 01:49:47;;;;;;;206.95;40.45;;;;;;;9.19;100.00;96774.63;2034033;29;20056;-60
2022/07/02 01:50:48;;;;;;;335.65;49.00;;;;;;;9.18;100.00;96772.94;2042135;29;20062;-59
2022/07/02 01:51:50;;;;;;;282.80;47.22;;;;;;;9.17;100.00;96775.59;2042297;29;20044;-61
2022/07/02 01:52:51;;;;;;;90.55;31.30;;;;;;;9.21;100.00;96769.41;2034161;29;20662;-61
2022/07/02 01:53:52;;;;;;;170.57;38.63;;;;;;;9.16;100.00;96771.28;2034323;29;20149;-60
2022/07/02 01:54:54;;;;;;;156.52;38.03;;;;;;;9.16;100.00;96771.28;2041275;29;20044;-61
2022/07/02 01:55:55;;;;;;;192.55;38.25;;;;;;;9.19;100.00;96778.97;2041821;29;20056;-61
2022/07/02 01:56:56;;;;;;;168.05;36.60;;;;;;;9.15;100.00;96778.22;2034019;29;20055;-61
2022/07/02 01:57:58;;;;;;;213.32;38.47;;;;;;;9.14;100.00;96779.13;2027072;29;20060;-61
2022/07/02 01:58:59;;;;;;;308.58;47.90;;;;;;;9.16;100.00;96776.47;2026962;29;20045;-60
2022/07/02 02:00:10;;;;;;;149.00;36.33;;;;;;;9.17;100.00;96775.59;2027172;29;20499;-60
2022/07/02 02:01:11;;;;;;;459.90;61.10;;;;;;;9.12;100.00;96782.66;2027201;29;20071;-62
2022/07/02 02:02:12;;;;;;;136.40;31.17;;;;;;;9.18;100.00;96779.88;2026449;29;20060;-60
2022/07/02 02:03:13;;;;;;;385.67;56.25;;;;;;;9.10;100.00;96774.06;2033675;29;20047;-61
2022/07/02 02:04:15;;;;;;;290.38;46.75;;;;;;;9.07;100.00;96779.34;2033978;29;20048;-59
2022/07/02 02:05:16;;;;;;;334.00;52.83;;;;;;;9.07;100.00;96779.34;2042425;29;20057;-61
2022/07/02 02:06:17;;;;;;;339.52;48.35;;;;;;;9.01;100.00;96780.38;2033720;29;20051;-61
2022/07/02 02:07:18;;;;;;;494.83;63.05;;;;;;;9.02;100.00;96782.06;2034308;29;20404;-60
2022/07/02 02:08:19;;;;;;;309.90;49.55;;;;;;;9.01;100.00;96780.38;2049652;29;20534;-61
2022/07/02 02:09:21;;;;;;;333.98;51.53;;;;;;;9.01;100.00;96781.22;2041753;29;20051;-61
2022/07/02 02:10:22;;;;;;;443.33;56.53;;;;;;;9.00;100.00;96778.66;2041934;29;20048;-61
2022/07/02 02:11:23;;;;;;;365.73;53.20;;;;;;;9.00;100.00;96781.25;2041539;29;20055;-60
2022/07/02 02:12:25;;;;;;;322.95;49.67;;;;;;;9.00;100.00;96778.66;2026766;29;20056;-61
2022/07/02 02:13:26;;;;;;;282.00;46.80;;;;;;;9.00;100.00;96778.66;2026015;29;20056;-61
2022/07/02 02:14:27;;;;;;;353.50;52.25;;;;;;;8.98;100.00;96777.84;2041493;29;20070;-60
2022/07/02 02:15:28;;;;;;;394.85;54.72;;;;;;;8.99;100.00;96777.81;2034679;29;20052;-61
2022/07/02 02:16:30;;;;;;;346.58;52.35;;;;;;;9.03;100.00;96786.34;2026408;29;20048;-60
2022/07/02 02:17:31;;;;;;;229.57;39.50;;;;;;;9.01;100.00;96786.41;2026468;29;20052;-61
2022/07/02 02:18:33;;;;;;;121.32;32.63;;;;;;;9.03;100.00;96784.63;2033796;29;20051;-60
2022/07/02 02:19:34;;;;;;;276.95;46.58;;;;;;;9.03;100.00;96788.91;2033785;29;20146;-61
2022/07/02 02:20:36;;;;;;;285.23;47.80;;;;;;;9.01;100.00;96786.41;2034280;29;20040;-58
2022/07/02 02:21:37;;;;;;;58.53;25.67;;;;;;;9.08;100.00;96787.06;2026462;29;20499;-61
2022/07/02 02:22:38;;;;;;;201.63;40.85;;;;;;;9.02;100.00;96787.25;2018905;29;20554;-61
2022/07/02 02:23:39;;;;;;;240.00;44.42;;;;;;;9.02;100.00;96788.09;2033975;29;20044;-61
2022/07/02 02:24:41;;;;;;;95.35;29.55;;;;;;;9.04;100.00;96788.88;2034445;29;20048;-61
2022/07/02 02:25:42;;;;;;;364.80;54.45;;;;;;;8.88;100.00;96764.31;2034011;29;20040;-60
2022/07/02 02:26:43;;;;;;;402.52;55.05;;;;;;;9.03;100.00;96787.22;2033650;29;20048;-61
2022/07/02 02:27:44;;;;;;;150.38;34.95;;;;;;;9.08;100.00;96786.22;2041295;29;20449;-62
2022/07/02 02:28:46;;;;;;;170.55;36.85;;;;;;;9.04;100.00;96788.03;2038177;29;20047;-61
2022/07/02 02:29:47;;;;;;;345.48;49.08;;;;;;;9.04;100.00;96786.31;2041875;29;20056;-61
2022/07/02 02:30:48;;;;;;;417.77;55.97;;;;;;;9.05;100.00;96787.16;2042108;29;20048;-59
2022/07/02 02:31:50;;;;;;;134.43;31.85;;;;;;;9.09;100.00;96788.78;2033953;29;20415;-60
2022/07/02 02:32:51;;;;;;;436.17;57.22;;;;;;;9.08;100.00;96787.06;2049103;29;20047;-61
2022/07/02 02:33:53;;;;;;;367.60;52.67;;;;;;;9.08;100.00;96788.81;2041766;29;20055;-60
2022/07/02 02:34:54;;;;;;;370.25;52.33;;;;;;;9.04;100.00;96783.72;2040814;29;20055;-60
2022/07/02 02:35:55;;;;;;;245.88;39.22;;;;;;;9.05;100.00;96795.75;2025913;29;20124;-61
2022/07/02 02:36:56;;;;;;;394.42;53.92;;;;;;;9.08;100.00;96789.66;2018612;29;20045;-61
2022/07/02 02:37:57;;;;;;;309.17;49.63;;;;;;;9.08;100.00;96789.66;2034061;29;20090;-60
2022/07/02 02:38:59;;;;;;;145.48;34.33;;;;;;;9.08;100.00;96791.38;2033545;29;20051;-62
2022/07/02 02:40:00;;;;;;;242.55;40.83;;;;;;;8.98;100.00;96786.47;2033572;29;20048;-60
2022/07/02 02:41:05;;;;;;;374.55;52.92;;;;;;;9.00;100.00;96786.41;2049274;29;20051;-61
2022/07/02 02:42:07;;;;;;;212.52;38.95;;;;;;;9.00;100.00;96787.25;2040492;29;20055;-60
2022/07/02 02:43:08;;;;;;;242.70;40.95;;;;;;;9.01;100.00;96788.97;2033909;29;20479;-60
2022/07/02 02:44:09;;;;;;;436.58;58.10;;;;;;;8.99;100.00;96788.16;2049286;29;20043;-61
2022/07/02 02:45:11;;;;;;;377.95;53.75;;;;;;;8.96;100.00;96780.50;2041568;29;20052;-60
2022/07/02 02:46:12;;;;;;;190.48;38.38;;;;;;;8.94;100.00;96789.19;2049219;28;20055;-61
2022/07/02 02:47:13;;;;;;;340.20;47.80;;;;;;;8.94;100.00;96791.78;2049132;29;20065;-60
2022/07/02 02:48:15;;;;;;;139.60;32.10;;;;;;;8.98;100.00;96786.47;2041491;29;20509;-60
2022/07/02 02:49:17;;;;;;;263.25;42.38;;;;;;;8.99;100.00;96788.16;2049026;28;20047;-61
2022/07/02 02:50:18;;;;;;;232.18;37.45;;;;;;;8.98;100.00;96789.06;2049272;29;20524;-61
2022/07/02 02:51:19;;;;;;;366.85;47.42;;;;;;;8.97;100.00;96778.75;2048068;29;20070;-61
2022/07/02 02:52:20;;;;;;;560.95;64.68;;;;;;;8.96;100.00;96785.66;2025752;29;20051;-59
2022/07/02 02:53:22;;;;;;;396.70;50.50;;;;;;;8.95;100.00;96790.88;2033571;29;20048;-61
2022/07/02 02:54:23;;;;;;;575.78;66.05;;;;;;;8.96;100.00;96790.84;2033921;29;20048;-60
2022/07/02 02:55:24;;;;;;;638.60;69.63;;;;;;;8.93;100.00;96778.00;2033939;29;20044;-61
2022/07/02 02:56:25;;;;;;;305.23;43.72;;;;;;;8.93;100.00;96790.09;2035950;29;20040;-61
2022/07/02 02:57:27;;;;;;;498.25;60.13;;;;;;;8.95;100.00;96790.88;2041921;29;20050;-60
2022/07/02 02:58:28;;;;;;;539.95;63.03;;;;;;;8.93;100.00;96797.88;2041489;29;20046;-61
2022/07/02 02:59:29;;;;;;;584.65;67.30;;;;;;;8.94;100.00;96795.22;2025702;29;20067;-61
2022/07/02 03:00:30;;;;;;;465.30;59.28;;;;;;;8.96;100.00;96790.84;2026225;29;20052;-60
2022/07/02 03:01:32;;;;;;;427.73;53.90;;;;;;;8.96;100.00;96777.06;2026449;29;20060;-61
2022/07/02 03:02:33;;;;;;;346.35;50.30;;;;;;;8.97;100.00;96783.94;2033594;29;20048;-61
2022/07/02 03:03:34;;;;;;;375.65;53.75;;;;;;;8.95;100.00;96791.72;2041497;29;20067;-61
2022/07/02 03:04:35;;;;;;;228.57;40.15;;;;;;;8.95;100.00;96783.94;2041338;29;20417;-60
2022/07/02 03:05:36;;;;;;;337.00;50.53;;;;;;;8.93;100.00;96775.41;2025622;29;20044;-61
2022/07/02 03:06:38;;;;;;;463.95;58.60;;;;;;;8.94;100.00;96778.84;2018477;29;20051;-61
2022/07/02 03:07:39;;;;;;;410.25;55.65;;;;;;;8.95;100.00;96778.78;2034512;29;20063;-60
2022/07/02 03:08:40;;;;;;;439.85;59.03;;;;;;;8.94;100.00;96790.03;2033079;29;20047;-61
2022/07/02 03:09:41;;;;;;;490.60;63.42;;;;;;;8.94;100.00;96781.44;2025657;29;20048;-60
2022/07/02 03:10:43;;;;;;;288.42;46.85;;;;;;;8.94;100.00;96789.19;2033346;29;20059;-63
2022/07/02 03:11:44;;;;;;;436.85;57.08;;;;;;;8.95;100.00;96791.72;2041436;28;20052;-60
2022/07/02 03:12:46;;;;;;;400.08;55.25;;;;;;;8.91;100.00;96795.31;2049459;29;20043;-60
2022/07/02 03:13:47;;;;;;;319.80;49.55;;;;;;;8.89;100.00;96794.50;2049300;29;20051;-59
2022/07/02 03:14:48;;;;;;;290.88;48.17;;;;;;;8.86;100.00;96792.00;2057643;28;20047;-60
2022/07/02 03:15:49;;;;;;;511.20;60.88;;;;;;;8.87;100.00;96793.69;2041204;29;20525;-60
2022/07/02 03:16:51;;;;;;;423.90;57.13;;;;;;;8.86;100.00;96797.19;2041634;29;20048;-61
2022/07/02 03:17:52;;;;;;;481.67;62.33;;;;;;;8.84;100.00;96798.94;2049219;28;20055;-60
2022/07/02 03:18:53;;;;;;;235.50;42.30;;;;;;;8.89;100.00;96799.69;2048578;28;20047;-61
2022/07/02 03:19:54;;;;;;;221.07;40.40;;;;;;;8.92;100.00;96798.75;2033457;29;20048;-61
2022/07/02 03:20:55;;;;;;;252.50;45.35;;;;;;;8.93;100.00;96798.72;2033536;29;20169;-60
2022/07/02 03:21:57;;;;;;;261.17;46.63;;;;;;;8.92;100.00;96809.09;2033615;29;20044;-61
2022/07/02 03:22:58;;;;;;;180.45;38.42;;;;;;;8.90;100.00;96801.41;2025571;29;20048;-61
2022/07/02 03:24:00;;;;;;;86.65;29.50;;;;;;;8.91;100.00;96810.84;2041893;29;20052;-60
2022/07/02 03:25:01;;;;;;;123.50;36.05;;;;;;;8.95;100.00;96809.84;2048837;29;20102;-61
2022/07/02 03:26:02;;;;;;;109.57;34.20;;;;;;;8.98;100.00;96806.34;2041267;29;20059;-60
2022/07/02 03:27:04;;;;;;;127.65;34.92;;;;;;;8.95;100.00;96807.25;2025462;29;20489;-61
2022/07/02 03:28:05;;;;;;;102.13;33.92;;;;;;;8.97;100.00;96813.25;2018101;29;20400;-62
2022/07/02 03:29:06;;;;;;;72.55;29.45;;;;;;;9.01;100.00;96806.28;2032853;29;20048;-61
2022/07/02 03:30:08;;;;;;;117.78;35.40;;;;;;;8.95;100.00;96816.78;2048659;29;20429;-61
2022/07/02 03:31:09;;;;;;;152.25;32.95;;;;;;;8.87;100.00;96809.22;2040373;29;20494;-61
2022/07/02 03:32:11;;;;;;;217.13;38.47;;;;;;;8.86;100.00;96812.72;2032999;29;20523;-61
2022/07/02 03:33:12;;;;;;;314.23;46.35;;;;;;;8.92;100.00;96809.09;2049385;29;20043;-60
2022/07/02 03:34:13;;;;;;;527.95;59.15;;;;;;;8.90;100.00;96811.75;2048989;29;20055;-61
2022/07/02 03:35:14;;;;;;;368.67;47.58;;;;;;;8.90;100.00;96809.16;2041492;29;20047;-61
2022/07/02 03:36:16;;;;;;;575.58;65.28;;;;;;;8.82;100.00;96813.69;2049120;29;20051;-62
2022/07/02 03:37:17;;;;;;;451.23;52.47;;;;;;;8.78;100.00;96804.31;2033278;29;20048;-60
2022/07/02 03:38:18;;;;;;;355.85;47.80;;;;;;;8.74;100.00;96811.31;2033164;29;20048;-61
2022/07/02 03:39:19;;;;;;;332.60;45.53;;;;;;;8.74;100.00;96805.28;2033280;29;20043;-61
2022/07/02 03:40:20;;;;;;;338.38;43.53;;;;;;;8.69;100.00;96808.00;2033821;29;20044;-60
2022/07/02 03:41:22;;;;;;;269.73;42.28;;;;;;;8.67;100.00;96802.00;2033412;29;20044;-60
2022/07/02 03:42:23;;;;;;;266.58;38.67;;;;;;;8.65;100.00;96815.88;2033275;29;20059;-60
2022/07/02 03:43:24;;;;;;;437.42;52.80;;;;;;;8.65;100.00;96814.13;2041209;29;20051;-60
2022/07/02 03:44:25;;;;;;;168.10;34.00;;;;;;;8.71;100.00;96810.53;2041889;29;20055;-60
2022/07/02 03:45:27;;;;;;;189.32;36.35;;;;;;;8.73;100.00;96806.16;2034081;29;20518;-60
2022/07/02 03:46:28;;;;;;;191.07;33.30;;;;;;;8.71;100.00;96801.03;2041261;29;20047;-60
2022/07/02 03:47:29;;;;;;;270.05;38.53;;;;;;;8.71;100.00;96808.78;2032807;29;20066;-61
2022/07/02 03:48:30;;;;;;;130.00;29.55;;;;;;;8.77;100.00;96810.38;2032960;29;20055;-61
2022/07/02 03:49:31;;;;;;;183.18;36.22;;;;;;;8.73;100.00;96806.16;2025803;29;20056;-60
2022/07/02 03:50:33;;;;;;;232.20;39.42;;;;;;;8.72;100.00;96805.31;2033701;29;20048;-60
2022/07/02 03:51:34;;;;;;;189.30;36.13;;;;;;;8.76;100.00;96816.44;2040905;29;20059;-60
2022/07/02 03:52:38;;;;;;;182.35;35.55;;;;;;;8.75;100.00;96810.41;2041245;29;20050;-60
2022/07/02 03:53:40;;;;;;;139.68;34.08;;;;;;;8.77;100.00;96807.81;2040891;29;20043;-60
2022/07/02 03:54:41;;;;;;;112.70;31.92;;;;;;;8.79;100.00;96809.47;2041470;29;20087;-60
2022/07/02 03:55:42;;;;;;;143.13;34.75;;;;;;;8.84;100.00;96810.16;2049659;29;20046;-61
2022/07/02 03:56:43;;;;;;;125.75;33.63;;;;;;;8.89;100.00;96815.22;2049306;29;20047;-60
2022/07/02 03:57:45;;;;;;;217.07;38.75;;;;;;;8.78;100.00;96809.50;2048566;29;20046;-61
2022/07/02 03:58:46;;;;;;;176.57;36.78;;;;;;;8.77;100.00;96798.28;2026385;29;20423;-61
2022/07/02 03:59:47;;;;;;;100.20;28.10;;;;;;;8.83;100.00;96807.63;2035132;29;20060;-60
2022/07/02 04:00:49;;;;;;;116.13;29.13;;;;;;;8.80;100.00;96808.56;2035489;29;20048;-61
2022/07/02 04:01:52;;;;;;;97.97;30.40;;;;;;;8.82;100.00;96811.97;2034734;29;20423;-60
2022/07/02 04:02:54;;;;;;;95.35;29.27;;;;;;;8.86;100.00;96810.13;2042745;28;20054;-61
2022/07/02 04:03:55;;;;;;;111.97;30.75;;;;;;;8.86;100.00;96809.28;2042722;29;20052;-60
2022/07/02 04:04:56;;;;;;;63.50;24.08;;;;;;;8.91;100.00;96813.44;2035131;29;20059;-60
2022/07/02 04:05:57;;;;;;;126.07;32.63;;;;;;;8.94;100.00;96809.91;2043204;29;20066;-61
2022/07/02 04:06:58;;;;;;;184.63;35.55;;;;;;;8.84;100.00;96819.66;2035113;29;20406;-60
2022/07/02 04:08:00;;;;;;;149.77;34.30;;;;;;;8.84;100.00;96815.34;2034642;29;20492;-59
2022/07/02 04:09:01;;;;;;;97.90;28.58;;;;;;;8.88;100.00;96818.72;2042634;28;20048;-61
2022/07/02 04:10:03;;;;;;;79.35;27.65;;;;;;;8.86;100.00;96812.72;2050871;29;20047;-60
2022/07/02 04:11:04;;;;;;;92.53;29.05;;;;;;;8.84;100.00;96817.09;2042894;28;20055;-60
2022/07/02 04:12:06;;;;;;;68.07;25.52;;;;;;;8.91;100.00;96815.19;2043454;29;20046;-61
2022/07/02 04:13:08;;;;;;;66.60;26.80;;;;;;;8.94;100.00;96815.94;2042647;28;20110;-60
2022/07/02 04:14:09;;;;;;;81.68;27.75;;;;;;;8.99;100.00;96814.06;2058480;28;20054;-61
2022/07/02 04:15:10;;;;;;;76.53;26.23;;;;;;;8.95;100.00;96809.84;2050420;29;20528;-60
2022/07/02 04:16:12;;;;;;;34.03;20.00;;;;;;;9.00;100.00;96815.75;2050457;29;20054;-60
2022/07/02 04:17:13;;;;;;;39.83;20.77;;;;;;;8.97;100.00;96815.00;2050373;29;20051;-60
2022/07/02 04:18:14;;;;;;;38.47;21.98;;;;;;;8.93;100.00;96816.84;2041652;29;20044;-61
2022/07/02 04:19:15;;;;;;;32.97;19.10;;;;;;;8.90;100.00;96819.53;2050310;29;20413;-61
2022/07/02 04:20:17;;;;;;;41.63;22.75;;;;;;;8.87;100.00;96817.00;2042534;29;20059;-61
2022/07/02 04:21:18;;;;;;;34.00;19.35;;;;;;;8.91;100.00;96820.38;2041949;29;20519;-60
2022/07/02 04:22:19;;;;;;;28.73;18.27;;;;;;;8.92;100.00;96815.13;2050312;29;20047;-60
2022/07/02 04:23:20;;;;;;;24.13;16.83;;;;;;;8.98;100.00;96812.38;2026114;29;20049;-60
2022/07/02 04:24:21;;;;;;;33.10;19.70;;;;;;;8.95;100.00;96812.44;2034479;28;20075;-62
2022/07/02 04:25:23;;;;;;;28.70;18.80;;;;;;;8.94;100.00;96812.50;2057845;28;20405;-60
2022/07/02 04:26:24;;;;;;;32.20;18.08;;;;;;;8.94;100.00;96813.34;2050390;29;20047;-60
2022/07/02 04:27:25;;;;;;;33.88;18.15;;;;;;;8.93;100.00;96821.19;2049852;29;20051;-60
2022/07/02 04:28:26;;;;;;;24.85;17.15;;;;;;;8.97;100.00;96813.25;2046601;29;20051;-61
2022/07/02 04:29:27;;;;;;;28.17;17.80;;;;;;;8.93;100.00;96816.00;2041712;29;20054;-59
2022/07/02 04:30:29;;;;;;;29.75;18.08;;;;;;;8.94;100.00;96815.94;2041651;29;20087;-60
2022/07/02 04:31:30;;;;;;;27.30;18.45;;;;;;;9.03;100.00;96807.06;2034135;29;20055;-61
2022/07/02 04:32:31;;;;;;;27.80;18.50;;;;;;;9.04;100.00;96814.81;2034240;29;20047;-60
2022/07/02 04:33:32;;;;;;;28.00;17.92;;;;;;;8.98;100.00;96817.56;2026642;29;20075;-60
2022/07/02 04:34:33;;;;;;;30.23;18.55;;;;;;;9.00;100.00;96820.09;2027069;29;20064;-60
2022/07/02 04:35:35;;;;;;;26.58;18.02;;;;;;;9.00;100.00;96815.75;2049409;28;20058;-60
2022/07/02 04:36:37;;;;;;;24.95;16.95;;;;;;;9.04;100.00;96816.53;2057625;28;20047;-60
2022/07/02 04:37:40;;;;;;;29.88;18.65;;;;;;;8.99;100.00;96815.81;2049547;29;20043;-60
2022/07/02 04:38:41;;;;;;;27.52;18.17;;;;;;;9.02;100.00;96814.00;2042235;29;20039;-61
2022/07/02 04:39:42;;;;;;;26.27;17.80;;;;;;;9.09;100.00;96816.41;2050601;28;20047;-62
2022/07/02 04:40:44;;;;;;;21.33;15.68;;;;;;;9.11;100.00;96824.97;2049931;29;20043;-61
2022/07/02 04:41:45;;;;;;;23.98;17.13;;;;;;;9.11;100.00;96818.06;2034551;29;20056;-61
2022/07/02 04:42:46;;;;;;;27.13;17.13;;;;;;;9.10;100.00;96821.56;2027272;29;20403;-61
2022/07/02 04:43:47;;;;;;;31.85;18.10;;;;;;;9.10;99.53;96828.47;2042328;29;20051;-58
2022/07/02 04:44:48;;;;;;;26.70;17.60;;;;;;;9.09;100.00;96824.16;2050224;28;20043;-62
2022/07/02 04:45:50;;;;;;;31.05;17.48;;;;;;;9.10;99.60;96825.88;2050161;29;20533;-60
2022/07/02 04:46:51;;;;;;;70.20;19.20;;;;;;;8.99;100.00;96824.44;2042878;29;20114;-60